sensor_id;sensor_type;location;lat;lon;timestamp;P1;durP1;ratioP1;P2;durP2;ratioP2
31638;SDS011;18248;51.522;7.020;2023-08-07T00:01:52;5.82;;;2.03;;
31638;SDS011;18248;51.522;7.020;2023-08-07T00:04:51;9.30;;;2.40;;
31638;SDS011;18248;51.522;7.020;2023-08-07T00:07:51;7.15;;;2.75;;
31638;SDS011;18248;51.522;7.020;2023-08-07T00:10:49;7.00;;;2.63;;
31638;SDS011;18248;51.522;7.020;2023-08-07T00:13:48;7.68;;;2.63;;
31638;SDS011;18248;51.522;7.020;2023-08-07T00:16:46;5.68;;;1.85;;
31638;SDS011;18248;51.522;7.020;2023-08-07T00:19:45;8.57;;;2.08;;
31638;SDS011;18248;51.522;7.020;2023-08-07T00:22:43;13.38;;;2.78;;
31638;SDS011;18248;51.522;7.020;2023-08-07T00:25:42;8.35;;;2.08;;
31638;SDS011;18248;51.522;7.020;2023-08-07T00:28:40;14.98;;;2.08;;
31638;SDS011;18248;51.522;7.020;2023-08-07T00:31:39;11.80;;;2.25;;
31638;SDS011;18248;51.522;7.020;2023-08-07T00:34:37;9.00;;;2.20;;
31638;SDS011;18248;51.522;7.020;2023-08-07T00:37:36;8.98;;;2.00;;
31638;SDS011;18248;51.522;7.020;2023-08-07T00:40:38;10.20;;;2.25;;
31638;SDS011;18248;51.522;7.020;2023-08-07T00:43:37;13.40;;;2.35;;
31638;SDS011;18248;51.522;7.020;2023-08-07T00:46:36;9.60;;;2.63;;
31638;SDS011;18248;51.522;7.020;2023-08-07T00:49:37;10.27;;;2.22;;
31638;SDS011;18248;51.522;7.020;2023-08-07T00:52:37;13.13;;;2.65;;
31638;SDS011;18248;51.522;7.020;2023-08-07T00:55:35;6.63;;;2.00;;
31638;SDS011;18248;51.522;7.020;2023-08-07T00:58:34;12.82;;;2.97;;
31638;SDS011;18248;51.522;7.020;2023-08-07T01:01:34;20.10;;;3.95;;
31638;SDS011;18248;51.522;7.020;2023-08-07T01:04:32;15.30;;;4.60;;
31638;SDS011;18248;51.522;7.020;2023-08-07T01:07:31;12.18;;;4.43;;
31638;SDS011;18248;51.522;7.020;2023-08-07T01:10:42;13.50;;;4.82;;
31638;SDS011;18248;51.522;7.020;2023-08-07T01:14:02;14.65;;;5.22;;
31638;SDS011;18248;51.522;7.020;2023-08-07T01:17:14;17.17;;;5.20;;
31638;SDS011;18248;51.522;7.020;2023-08-07T01:20:14;13.15;;;3.75;;
31638;SDS011;18248;51.522;7.020;2023-08-07T01:23:12;11.38;;;3.63;;
31638;SDS011;18248;51.522;7.020;2023-08-07T01:26:11;11.90;;;3.70;;
31638;SDS011;18248;51.522;7.020;2023-08-07T01:29:15;9.45;;;4.47;;
31638;SDS011;18248;51.522;7.020;2023-08-07T01:32:41;15.45;;;6.78;;
31638;SDS011;18248;51.522;7.020;2023-08-07T01:36:01;17.33;;;6.43;;
31638;SDS011;18248;51.522;7.020;2023-08-07T01:39:04;13.98;;;5.30;;
31638;SDS011;18248;51.522;7.020;2023-08-07T01:42:05;14.32;;;5.80;;
31638;SDS011;18248;51.522;7.020;2023-08-07T01:45:04;20.13;;;4.88;;
31638;SDS011;18248;51.522;7.020;2023-08-07T01:48:03;13.77;;;3.88;;
31638;SDS011;18248;51.522;7.020;2023-08-07T01:51:03;15.73;;;4.25;;
31638;SDS011;18248;51.522;7.020;2023-08-07T01:54:01;12.60;;;3.53;;
31638;SDS011;18248;51.522;7.020;2023-08-07T01:57:00;12.63;;;3.65;;
31638;SDS011;18248;51.522;7.020;2023-08-07T02:00:00;10.65;;;3.65;;
31638;SDS011;18248;51.522;7.020;2023-08-07T02:02:58;9.45;;;2.80;;
31638;SDS011;18248;51.522;7.020;2023-08-07T02:05:57;11.13;;;3.28;;
31638;SDS011;18248;51.522;7.020;2023-08-07T02:08:55;8.43;;;2.78;;
31638;SDS011;18248;51.522;7.020;2023-08-07T02:11:55;8.93;;;3.20;;
31638;SDS011;18248;51.522;7.020;2023-08-07T02:14:55;7.20;;;2.60;;
31638;SDS011;18248;51.522;7.020;2023-08-07T02:17:55;7.13;;;2.40;;
31638;SDS011;18248;51.522;7.020;2023-08-07T02:20:53;8.77;;;3.20;;
31638;SDS011;18248;51.522;7.020;2023-08-07T02:23:52;7.22;;;1.95;;
31638;SDS011;18248;51.522;7.020;2023-08-07T02:26:50;6.50;;;1.75;;
31638;SDS011;18248;51.522;7.020;2023-08-07T02:29:49;5.55;;;1.60;;
31638;SDS011;18248;51.522;7.020;2023-08-07T02:32:49;4.70;;;2.13;;
31638;SDS011;18248;51.522;7.020;2023-08-07T02:35:47;3.65;;;1.58;;
31638;SDS011;18248;51.522;7.020;2023-08-07T02:38:46;5.75;;;1.50;;
31638;SDS011;18248;51.522;7.020;2023-08-07T02:41:44;5.72;;;1.70;;
31638;SDS011;18248;51.522;7.020;2023-08-07T02:44:43;6.38;;;1.60;;
31638;SDS011;18248;51.522;7.020;2023-08-07T02:47:41;7.85;;;1.67;;
31638;SDS011;18248;51.522;7.020;2023-08-07T02:50:41;4.85;;;1.50;;
31638;SDS011;18248;51.522;7.020;2023-08-07T02:53:40;3.88;;;1.35;;
31638;SDS011;18248;51.522;7.020;2023-08-07T02:56:38;5.38;;;1.52;;
31638;SDS011;18248;51.522;7.020;2023-08-07T02:59:37;5.40;;;1.45;;
31638;SDS011;18248;51.522;7.020;2023-08-07T03:02:35;6.07;;;1.83;;
31638;SDS011;18248;51.522;7.020;2023-08-07T03:05:34;6.50;;;2.00;;
31638;SDS011;18248;51.522;7.020;2023-08-07T03:08:32;6.25;;;1.85;;
31638;SDS011;18248;51.522;7.020;2023-08-07T03:11:31;6.47;;;1.67;;
31638;SDS011;18248;51.522;7.020;2023-08-07T03:14:30;12.07;;;2.53;;
31638;SDS011;18248;51.522;7.020;2023-08-07T03:17:29;4.70;;;1.88;;
31638;SDS011;18248;51.522;7.020;2023-08-07T03:20:28;12.68;;;2.70;;
31638;SDS011;18248;51.522;7.020;2023-08-07T03:23:26;8.07;;;2.05;;
31638;SDS011;18248;51.522;7.020;2023-08-07T03:26:26;9.07;;;2.08;;
31638;SDS011;18248;51.522;7.020;2023-08-07T03:29:25;10.55;;;2.20;;
31638;SDS011;18248;51.522;7.020;2023-08-07T03:32:23;10.75;;;3.42;;
31638;SDS011;18248;51.522;7.020;2023-08-07T03:35:22;10.10;;;4.38;;
31638;SDS011;18248;51.522;7.020;2023-08-07T03:38:20;24.02;;;6.78;;
31638;SDS011;18248;51.522;7.020;2023-08-07T03:41:20;26.80;;;5.90;;
31638;SDS011;18248;51.522;7.020;2023-08-07T03:44:18;16.42;;;5.80;;
31638;SDS011;18248;51.522;7.020;2023-08-07T03:47:17;17.38;;;6.32;;
31638;SDS011;18248;51.522;7.020;2023-08-07T03:50:16;32.55;;;6.38;;
31638;SDS011;18248;51.522;7.020;2023-08-07T03:53:14;21.58;;;6.07;;
31638;SDS011;18248;51.522;7.020;2023-08-07T03:56:13;25.02;;;6.30;;
31638;SDS011;18248;51.522;7.020;2023-08-07T03:59:11;21.20;;;5.72;;
31638;SDS011;18248;51.522;7.020;2023-08-07T04:02:10;26.35;;;6.72;;
31638;SDS011;18248;51.522;7.020;2023-08-07T04:05:08;16.13;;;4.95;;
31638;SDS011;18248;51.522;7.020;2023-08-07T04:08:07;26.77;;;4.88;;
31638;SDS011;18248;51.522;7.020;2023-08-07T04:11:05;25.65;;;5.47;;
31638;SDS011;18248;51.522;7.020;2023-08-07T04:14:05;16.92;;;4.35;;
31638;SDS011;18248;51.522;7.020;2023-08-07T04:17:03;19.05;;;5.22;;
31638;SDS011;18248;51.522;7.020;2023-08-07T04:20:05;25.63;;;5.20;;
31638;SDS011;18248;51.522;7.020;2023-08-07T04:23:04;19.55;;;5.82;;
31638;SDS011;18248;51.522;7.020;2023-08-07T04:26:03;17.52;;;5.50;;
31638;SDS011;18248;51.522;7.020;2023-08-07T04:29:02;19.77;;;5.57;;
31638;SDS011;18248;51.522;7.020;2023-08-07T04:32:00;14.88;;;6.00;;
31638;SDS011;18248;51.522;7.020;2023-08-07T04:34:59;28.92;;;6.65;;
31638;SDS011;18248;51.522;7.020;2023-08-07T04:37:57;25.10;;;7.78;;
31638;SDS011;18248;51.522;7.020;2023-08-07T04:40:56;29.75;;;7.45;;
31638;SDS011;18248;51.522;7.020;2023-08-07T04:43:54;28.27;;;8.20;;
31638;SDS011;18248;51.522;7.020;2023-08-07T04:46:53;20.98;;;6.68;;
31638;SDS011;18248;51.522;7.020;2023-08-07T04:49:51;25.73;;;6.35;;
31638;SDS011;18248;51.522;7.020;2023-08-07T04:52:50;18.88;;;5.22;;
31638;SDS011;18248;51.522;7.020;2023-08-07T04:55:49;20.70;;;5.30;;
31638;SDS011;18248;51.522;7.020;2023-08-07T04:58:47;16.52;;;5.30;;
31638;SDS011;18248;51.522;7.020;2023-08-07T05:01:46;15.32;;;5.03;;
31638;SDS011;18248;51.522;7.020;2023-08-07T05:04:44;14.70;;;4.22;;
31638;SDS011;18248;51.522;7.020;2023-08-07T05:07:43;18.50;;;3.90;;
31638;SDS011;18248;51.522;7.020;2023-08-07T05:10:42;15.25;;;4.63;;
31638;SDS011;18248;51.522;7.020;2023-08-07T05:13:40;20.73;;;4.35;;
31638;SDS011;18248;51.522;7.020;2023-08-07T05:16:39;17.40;;;4.55;;
31638;SDS011;18248;51.522;7.020;2023-08-07T05:19:37;18.95;;;4.55;;
31638;SDS011;18248;51.522;7.020;2023-08-07T05:22:36;18.48;;;5.65;;
31638;SDS011;18248;51.522;7.020;2023-08-07T05:25:35;23.45;;;6.97;;
31638;SDS011;18248;51.522;7.020;2023-08-07T05:28:34;20.75;;;5.85;;
31638;SDS011;18248;51.522;7.020;2023-08-07T05:31:33;18.88;;;5.75;;
31638;SDS011;18248;51.522;7.020;2023-08-07T05:34:34;14.45;;;4.85;;
31638;SDS011;18248;51.522;7.020;2023-08-07T05:37:33;14.68;;;5.55;;
31638;SDS011;18248;51.522;7.020;2023-08-07T05:40:32;12.63;;;5.40;;
31638;SDS011;18248;51.522;7.020;2023-08-07T05:43:33;19.70;;;6.22;;
31638;SDS011;18248;51.522;7.020;2023-08-07T05:46:32;17.90;;;6.90;;
31638;SDS011;18248;51.522;7.020;2023-08-07T05:49:30;17.98;;;6.03;;
31638;SDS011;18248;51.522;7.020;2023-08-07T05:52:29;25.77;;;8.13;;
31638;SDS011;18248;51.522;7.020;2023-08-07T05:55:27;21.55;;;8.90;;
31638;SDS011;18248;51.522;7.020;2023-08-07T05:58:26;22.60;;;7.28;;
31638;SDS011;18248;51.522;7.020;2023-08-07T06:01:25;16.98;;;6.18;;
31638;SDS011;18248;51.522;7.020;2023-08-07T06:04:28;18.00;;;5.47;;
31638;SDS011;18248;51.522;7.020;2023-08-07T06:07:27;16.55;;;5.65;;
31638;SDS011;18248;51.522;7.020;2023-08-07T06:10:26;20.77;;;5.47;;
31638;SDS011;18248;51.522;7.020;2023-08-07T06:13:25;15.85;;;4.63;;
31638;SDS011;18248;51.522;7.020;2023-08-07T06:16:23;12.75;;;4.28;;
31638;SDS011;18248;51.522;7.020;2023-08-07T06:19:22;20.77;;;5.53;;
31638;SDS011;18248;51.522;7.020;2023-08-07T06:22:21;20.45;;;4.72;;
31638;SDS011;18248;51.522;7.020;2023-08-07T06:25:21;12.18;;;4.57;;
31638;SDS011;18248;51.522;7.020;2023-08-07T06:28:20;12.25;;;3.70;;
31638;SDS011;18248;51.522;7.020;2023-08-07T06:31:19;11.98;;;4.15;;
31638;SDS011;18248;51.522;7.020;2023-08-07T06:34:19;11.13;;;3.75;;
31638;SDS011;18248;51.522;7.020;2023-08-07T06:37:17;13.77;;;4.15;;
31638;SDS011;18248;51.522;7.020;2023-08-07T06:40:16;11.50;;;4.55;;
31638;SDS011;18248;51.522;7.020;2023-08-07T06:43:15;13.70;;;5.00;;
31638;SDS011;18248;51.522;7.020;2023-08-07T06:46:14;13.32;;;4.10;;
31638;SDS011;18248;51.522;7.020;2023-08-07T06:49:12;12.43;;;4.35;;
31638;SDS011;18248;51.522;7.020;2023-08-07T06:52:11;12.90;;;4.65;;
31638;SDS011;18248;51.522;7.020;2023-08-07T06:55:09;8.43;;;3.30;;
31638;SDS011;18248;51.522;7.020;2023-08-07T06:58:08;14.18;;;5.20;;
31638;SDS011;18248;51.522;7.020;2023-08-07T07:01:06;14.73;;;4.18;;
31638;SDS011;18248;51.522;7.020;2023-08-07T07:04:05;12.18;;;3.88;;
31638;SDS011;18248;51.522;7.020;2023-08-07T07:07:04;13.52;;;4.43;;
31638;SDS011;18248;51.522;7.020;2023-08-07T07:10:02;10.68;;;4.63;;
31638;SDS011;18248;51.522;7.020;2023-08-07T07:13:01;13.48;;;5.50;;
31638;SDS011;18248;51.522;7.020;2023-08-07T07:16:01;16.48;;;5.55;;
31638;SDS011;18248;51.522;7.020;2023-08-07T07:19:00;14.13;;;5.97;;
31638;SDS011;18248;51.522;7.020;2023-08-07T07:21:58;17.20;;;5.82;;
31638;SDS011;18248;51.522;7.020;2023-08-07T07:24:57;14.73;;;5.22;;
31638;SDS011;18248;51.522;7.020;2023-08-07T07:27:55;10.82;;;4.85;;
31638;SDS011;18248;51.522;7.020;2023-08-07T07:30:54;13.63;;;4.50;;
31638;SDS011;18248;51.522;7.020;2023-08-07T07:33:52;16.88;;;5.13;;
31638;SDS011;18248;51.522;7.020;2023-08-07T07:36:51;15.15;;;4.18;;
31638;SDS011;18248;51.522;7.020;2023-08-07T07:39:51;10.50;;;4.45;;
31638;SDS011;18248;51.522;7.020;2023-08-07T07:42:51;9.23;;;4.55;;
31638;SDS011;18248;51.522;7.020;2023-08-07T07:45:50;15.00;;;5.43;;
31638;SDS011;18248;51.522;7.020;2023-08-07T07:48:48;15.90;;;4.70;;
31638;SDS011;18248;51.522;7.020;2023-08-07T07:51:47;12.05;;;3.92;;
31638;SDS011;18248;51.522;7.020;2023-08-07T07:54:46;9.43;;;4.03;;
31638;SDS011;18248;51.522;7.020;2023-08-07T07:57:45;10.35;;;4.05;;
31638;SDS011;18248;51.522;7.020;2023-08-07T08:00:43;8.50;;;3.13;;
31638;SDS011;18248;51.522;7.020;2023-08-07T08:03:42;6.68;;;3.30;;
31638;SDS011;18248;51.522;7.020;2023-08-07T08:06:41;7.13;;;3.20;;
31638;SDS011;18248;51.522;7.020;2023-08-07T08:09:42;8.88;;;3.00;;
31638;SDS011;18248;51.522;7.020;2023-08-07T08:12:41;14.07;;;3.55;;
31638;SDS011;18248;51.522;7.020;2023-08-07T08:15:40;8.82;;;3.05;;
31638;SDS011;18248;51.522;7.020;2023-08-07T08:18:40;8.85;;;3.45;;
31638;SDS011;18248;51.522;7.020;2023-08-07T08:21:38;13.65;;;3.67;;
31638;SDS011;18248;51.522;7.020;2023-08-07T08:24:37;11.95;;;3.45;;
31638;SDS011;18248;51.522;7.020;2023-08-07T08:27:35;15.18;;;4.38;;
31638;SDS011;18248;51.522;7.020;2023-08-07T08:30:34;12.02;;;3.65;;
31638;SDS011;18248;51.522;7.020;2023-08-07T08:33:32;10.48;;;3.38;;
31638;SDS011;18248;51.522;7.020;2023-08-07T08:36:31;11.02;;;3.45;;
31638;SDS011;18248;51.522;7.020;2023-08-07T08:39:29;15.15;;;3.92;;
31638;SDS011;18248;51.522;7.020;2023-08-07T08:42:28;12.48;;;3.20;;
31638;SDS011;18248;51.522;7.020;2023-08-07T08:45:27;11.43;;;3.35;;
31638;SDS011;18248;51.522;7.020;2023-08-07T08:48:28;12.02;;;3.70;;
31638;SDS011;18248;51.522;7.020;2023-08-07T08:51:32;21.30;;;3.63;;
31638;SDS011;18248;51.522;7.020;2023-08-07T08:54:30;12.90;;;3.25;;
31638;SDS011;18248;51.522;7.020;2023-08-07T08:57:30;17.92;;;4.10;;
31638;SDS011;18248;51.522;7.020;2023-08-07T09:00:30;14.90;;;3.97;;
31638;SDS011;18248;51.522;7.020;2023-08-07T09:03:30;18.25;;;3.90;;
31638;SDS011;18248;51.522;7.020;2023-08-07T09:06:28;17.13;;;4.28;;
31638;SDS011;18248;51.522;7.020;2023-08-07T09:09:30;18.33;;;4.05;;
31638;SDS011;18248;51.522;7.020;2023-08-07T09:12:29;12.98;;;3.70;;
31638;SDS011;18248;51.522;7.020;2023-08-07T09:15:30;11.93;;;3.65;;
31638;SDS011;18248;51.522;7.020;2023-08-07T09:18:30;11.50;;;3.70;;
31638;SDS011;18248;51.522;7.020;2023-08-07T09:21:29;20.95;;;3.83;;
31638;SDS011;18248;51.522;7.020;2023-08-07T09:24:28;15.93;;;4.20;;
31638;SDS011;18248;51.522;7.020;2023-08-07T09:27:26;15.13;;;3.75;;
31638;SDS011;18248;51.522;7.020;2023-08-07T09:30:26;17.83;;;3.58;;
31638;SDS011;18248;51.522;7.020;2023-08-07T09:33:27;10.73;;;3.35;;
31638;SDS011;18248;51.522;7.020;2023-08-07T09:36:29;18.23;;;4.25;;
31638;SDS011;18248;51.522;7.020;2023-08-07T09:39:31;16.75;;;3.67;;
31638;SDS011;18248;51.522;7.020;2023-08-07T09:42:30;21.35;;;3.50;;
31638;SDS011;18248;51.522;7.020;2023-08-07T09:45:32;15.90;;;3.55;;
31638;SDS011;18248;51.522;7.020;2023-08-07T09:48:39;10.15;;;2.95;;
31638;SDS011;18248;51.522;7.020;2023-08-07T09:51:45;9.55;;;3.05;;
31638;SDS011;18248;51.522;7.020;2023-08-07T09:54:44;13.55;;;3.42;;
31638;SDS011;18248;51.522;7.020;2023-08-07T09:57:43;13.85;;;3.22;;
31638;SDS011;18248;51.522;7.020;2023-08-07T10:00:42;7.63;;;2.42;;
31638;SDS011;18248;51.522;7.020;2023-08-07T10:03:40;15.10;;;3.40;;
31638;SDS011;18248;51.522;7.020;2023-08-07T10:06:39;9.70;;;2.70;;
31638;SDS011;18248;51.522;7.020;2023-08-07T10:09:38;12.63;;;3.28;;
31638;SDS011;18248;51.522;7.020;2023-08-07T10:12:37;11.48;;;3.50;;
31638;SDS011;18248;51.522;7.020;2023-08-07T10:15:36;18.42;;;4.60;;
31638;SDS011;18248;51.522;7.020;2023-08-07T10:18:36;14.20;;;4.20;;
31638;SDS011;18248;51.522;7.020;2023-08-07T10:21:41;10.52;;;3.58;;
31638;SDS011;18248;51.522;7.020;2023-08-07T10:24:40;17.88;;;3.67;;
31638;SDS011;18248;51.522;7.020;2023-08-07T10:27:41;11.10;;;2.88;;
31638;SDS011;18248;51.522;7.020;2023-08-07T10:30:44;9.98;;;3.17;;
31638;SDS011;18248;51.522;7.020;2023-08-07T10:33:43;11.77;;;3.83;;
31638;SDS011;18248;51.522;7.020;2023-08-07T10:36:42;16.00;;;4.18;;
31638;SDS011;18248;51.522;7.020;2023-08-07T10:40:00;19.17;;;4.07;;
31638;SDS011;18248;51.522;7.020;2023-08-07T10:43:12;17.60;;;4.28;;
31638;SDS011;18248;51.522;7.020;2023-08-07T10:46:15;13.35;;;3.67;;
31638;SDS011;18248;51.522;7.020;2023-08-07T10:49:29;13.32;;;3.90;;
31638;SDS011;18248;51.522;7.020;2023-08-07T10:52:40;11.77;;;2.83;;
31638;SDS011;18248;51.522;7.020;2023-08-07T10:55:43;15.02;;;3.63;;
31638;SDS011;18248;51.522;7.020;2023-08-07T10:58:47;14.00;;;3.88;;
31638;SDS011;18248;51.522;7.020;2023-08-07T11:01:54;17.67;;;3.42;;
31638;SDS011;18248;51.522;7.020;2023-08-07T11:04:53;12.20;;;2.78;;
31638;SDS011;18248;51.522;7.020;2023-08-07T11:07:52;10.38;;;2.53;;
31638;SDS011;18248;51.522;7.020;2023-08-07T11:10:56;9.88;;;2.97;;
31638;SDS011;18248;51.522;7.020;2023-08-07T11:14:01;11.05;;;3.28;;
31638;SDS011;18248;51.522;7.020;2023-08-07T11:17:00;14.40;;;3.33;;
31638;SDS011;18248;51.522;7.020;2023-08-07T11:20:00;16.50;;;3.63;;
31638;SDS011;18248;51.522;7.020;2023-08-07T11:22:59;13.30;;;2.83;;
31638;SDS011;18248;51.522;7.020;2023-08-07T11:25:58;13.85;;;3.13;;
31638;SDS011;18248;51.522;7.020;2023-08-07T11:28:56;16.70;;;3.35;;
31638;SDS011;18248;51.522;7.020;2023-08-07T11:31:56;11.70;;;3.17;;
31638;SDS011;18248;51.522;7.020;2023-08-07T11:34:56;10.98;;;2.63;;
31638;SDS011;18248;51.522;7.020;2023-08-07T11:37:54;10.90;;;3.13;;
31638;SDS011;18248;51.522;7.020;2023-08-07T11:40:54;14.15;;;2.42;;
31638;SDS011;18248;51.522;7.020;2023-08-07T11:43:55;12.45;;;2.80;;
31638;SDS011;18248;51.522;7.020;2023-08-07T11:46:54;10.50;;;2.72;;
31638;SDS011;18248;51.522;7.020;2023-08-07T11:49:53;16.80;;;2.53;;
31638;SDS011;18248;51.522;7.020;2023-08-07T11:52:51;9.95;;;2.40;;
31638;SDS011;18248;51.522;7.020;2023-08-07T11:58:56;13.25;;;2.55;;
31638;SDS011;18248;51.522;7.020;2023-08-07T12:01:55;15.98;;;3.38;;
31638;SDS011;18248;51.522;7.020;2023-08-07T12:04:58;13.88;;;2.72;;
31638;SDS011;18248;51.522;7.020;2023-08-07T12:07:57;13.50;;;2.38;;
31638;SDS011;18248;51.522;7.020;2023-08-07T12:10:56;14.45;;;2.42;;
31638;SDS011;18248;51.522;7.020;2023-08-07T12:13:54;7.53;;;1.98;;
31638;SDS011;18248;51.522;7.020;2023-08-07T12:16:54;14.13;;;2.75;;
31638;SDS011;18248;51.522;7.020;2023-08-07T12:19:53;8.30;;;2.10;;
31638;SDS011;18248;51.522;7.020;2023-08-07T12:22:51;7.35;;;3.20;;
31638;SDS011;18248;51.522;7.020;2023-08-07T12:25:49;10.70;;;2.60;;
31638;SDS011;18248;51.522;7.020;2023-08-07T12:28:50;11.18;;;2.47;;
31638;SDS011;18248;51.522;7.020;2023-08-07T12:31:49;10.73;;;2.70;;
31638;SDS011;18248;51.522;7.020;2023-08-07T12:34:47;10.07;;;2.42;;
31638;SDS011;18248;51.522;7.020;2023-08-07T12:37:49;10.23;;;2.20;;
31638;SDS011;18248;51.522;7.020;2023-08-07T12:40:48;8.63;;;2.10;;
31638;SDS011;18248;51.522;7.020;2023-08-07T12:43:46;9.57;;;2.58;;
31638;SDS011;18248;51.522;7.020;2023-08-07T12:46:45;15.38;;;3.15;;
31638;SDS011;18248;51.522;7.020;2023-08-07T12:49:43;13.45;;;3.00;;
31638;SDS011;18248;51.522;7.020;2023-08-07T12:52:44;9.25;;;2.25;;
31638;SDS011;18248;51.522;7.020;2023-08-07T12:55:45;9.73;;;2.53;;
31638;SDS011;18248;51.522;7.020;2023-08-07T12:58:44;11.15;;;2.35;;
31638;SDS011;18248;51.522;7.020;2023-08-07T13:01:43;11.20;;;2.25;;
31638;SDS011;18248;51.522;7.020;2023-08-07T13:04:42;8.95;;;2.30;;
31638;SDS011;18248;51.522;7.020;2023-08-07T13:07:41;10.18;;;2.50;;
31638;SDS011;18248;51.522;7.020;2023-08-07T13:10:39;10.45;;;2.33;;
31638;SDS011;18248;51.522;7.020;2023-08-07T13:13:38;18.30;;;2.70;;
31638;SDS011;18248;51.522;7.020;2023-08-07T13:16:37;13.10;;;2.40;;
31638;SDS011;18248;51.522;7.020;2023-08-07T13:19:35;11.40;;;4.30;;
31638;SDS011;18248;51.522;7.020;2023-08-07T13:22:37;9.25;;;2.65;;
31638;SDS011;18248;51.522;7.020;2023-08-07T13:25:36;8.50;;;2.05;;
31638;SDS011;18248;51.522;7.020;2023-08-07T13:28:35;8.45;;;2.03;;
31638;SDS011;18248;51.522;7.020;2023-08-07T13:31:33;12.63;;;2.20;;
31638;SDS011;18248;51.522;7.020;2023-08-07T13:34:32;11.35;;;2.08;;
31638;SDS011;18248;51.522;7.020;2023-08-07T13:37:30;11.10;;;2.78;;
31638;SDS011;18248;51.522;7.020;2023-08-07T13:40:30;8.25;;;2.08;;
31638;SDS011;18248;51.522;7.020;2023-08-07T13:43:28;12.07;;;2.40;;
31638;SDS011;18248;51.522;7.020;2023-08-07T13:46:27;8.25;;;1.83;;
31638;SDS011;18248;51.522;7.020;2023-08-07T13:49:26;7.38;;;2.47;;
31638;SDS011;18248;51.522;7.020;2023-08-07T13:52:24;7.63;;;2.00;;
31638;SDS011;18248;51.522;7.020;2023-08-07T13:55:23;7.97;;;2.05;;
31638;SDS011;18248;51.522;7.020;2023-08-07T13:58:22;7.00;;;1.63;;
31638;SDS011;18248;51.522;7.020;2023-08-07T14:01:21;7.60;;;2.00;;
31638;SDS011;18248;51.522;7.020;2023-08-07T14:04:20;9.10;;;2.05;;
31638;SDS011;18248;51.522;7.020;2023-08-07T14:07:19;9.48;;;1.88;;
31638;SDS011;18248;51.522;7.020;2023-08-07T14:10:17;7.22;;;1.65;;
31638;SDS011;18248;51.522;7.020;2023-08-07T14:13:16;7.18;;;2.17;;
31638;SDS011;18248;51.522;7.020;2023-08-07T14:16:14;9.00;;;1.85;;
31638;SDS011;18248;51.522;7.020;2023-08-07T14:19:13;8.30;;;2.03;;
31638;SDS011;18248;51.522;7.020;2023-08-07T14:22:12;9.55;;;1.85;;
31638;SDS011;18248;51.522;7.020;2023-08-07T14:25:10;9.02;;;2.08;;
31638;SDS011;18248;51.522;7.020;2023-08-07T14:28:09;6.22;;;2.22;;
31638;SDS011;18248;51.522;7.020;2023-08-07T14:31:08;8.15;;;2.20;;
31638;SDS011;18248;51.522;7.020;2023-08-07T14:34:07;5.32;;;2.00;;
31638;SDS011;18248;51.522;7.020;2023-08-07T14:37:05;9.52;;;2.33;;
31638;SDS011;18248;51.522;7.020;2023-08-07T14:40:04;10.68;;;1.83;;
31638;SDS011;18248;51.522;7.020;2023-08-07T14:43:04;9.10;;;2.00;;
31638;SDS011;18248;51.522;7.020;2023-08-07T14:46:03;6.13;;;2.10;;
31638;SDS011;18248;51.522;7.020;2023-08-07T14:49:01;5.88;;;1.58;;
31638;SDS011;18248;51.522;7.020;2023-08-07T14:52:00;7.05;;;2.10;;
31638;SDS011;18248;51.522;7.020;2023-08-07T14:54:58;4.32;;;1.63;;
31638;SDS011;18248;51.522;7.020;2023-08-07T14:57:57;8.98;;;2.20;;
31638;SDS011;18248;51.522;7.020;2023-08-07T15:00:56;13.43;;;2.10;;
31638;SDS011;18248;51.522;7.020;2023-08-07T15:03:54;14.38;;;2.40;;
31638;SDS011;18248;51.522;7.020;2023-08-07T15:06:53;7.63;;;2.25;;
31638;SDS011;18248;51.522;7.020;2023-08-07T15:09:53;8.98;;;2.15;;
31638;SDS011;18248;51.522;7.020;2023-08-07T15:12:51;8.15;;;1.70;;
31638;SDS011;18248;51.522;7.020;2023-08-07T15:15:50;7.40;;;1.70;;
31638;SDS011;18248;51.522;7.020;2023-08-07T15:18:49;4.60;;;1.50;;
31638;SDS011;18248;51.522;7.020;2023-08-07T15:21:49;9.93;;;1.70;;
31638;SDS011;18248;51.522;7.020;2023-08-07T15:24:48;4.90;;;1.52;;
31638;SDS011;18248;51.522;7.020;2023-08-07T15:27:47;8.18;;;1.40;;
31638;SDS011;18248;51.522;7.020;2023-08-07T15:30:48;6.55;;;1.60;;
31638;SDS011;18248;51.522;7.020;2023-08-07T15:33:47;6.00;;;1.60;;
31638;SDS011;18248;51.522;7.020;2023-08-07T15:36:49;4.55;;;2.03;;
31638;SDS011;18248;51.522;7.020;2023-08-07T15:39:47;12.10;;;1.88;;
31638;SDS011;18248;51.522;7.020;2023-08-07T15:42:47;5.22;;;1.75;;
31638;SDS011;18248;51.522;7.020;2023-08-07T15:45:46;4.82;;;1.30;;
31638;SDS011;18248;51.522;7.020;2023-08-07T15:48:48;5.70;;;2.10;;
31638;SDS011;18248;51.522;7.020;2023-08-07T15:51:48;8.32;;;2.00;;
31638;SDS011;18248;51.522;7.020;2023-08-07T15:54:47;6.00;;;1.77;;
31638;SDS011;18248;51.522;7.020;2023-08-07T15:57:45;5.97;;;1.45;;
31638;SDS011;18248;51.522;7.020;2023-08-07T16:00:44;5.85;;;1.80;;
31638;SDS011;18248;51.522;7.020;2023-08-07T16:03:42;6.15;;;1.55;;
31638;SDS011;18248;51.522;7.020;2023-08-07T16:06:41;5.55;;;1.75;;
31638;SDS011;18248;51.522;7.020;2023-08-07T16:09:39;5.30;;;1.63;;
31638;SDS011;18248;51.522;7.020;2023-08-07T16:12:38;7.72;;;2.00;;
31638;SDS011;18248;51.522;7.020;2023-08-07T16:15:36;6.03;;;1.80;;
31638;SDS011;18248;51.522;7.020;2023-08-07T16:18:35;5.70;;;1.67;;
31638;SDS011;18248;51.522;7.020;2023-08-07T16:21:34;4.60;;;1.73;;
31638;SDS011;18248;51.522;7.020;2023-08-07T16:24:33;5.95;;;1.75;;
31638;SDS011;18248;51.522;7.020;2023-08-07T16:27:32;6.03;;;1.77;;
31638;SDS011;18248;51.522;7.020;2023-08-07T16:30:31;3.63;;;1.52;;
31638;SDS011;18248;51.522;7.020;2023-08-07T16:33:29;6.75;;;1.70;;
31638;SDS011;18248;51.522;7.020;2023-08-07T16:36:28;7.13;;;1.85;;
31638;SDS011;18248;51.522;7.020;2023-08-07T16:39:26;10.48;;;2.45;;
31638;SDS011;18248;51.522;7.020;2023-08-07T16:42:25;5.88;;;1.50;;
31638;SDS011;18248;51.522;7.020;2023-08-07T16:45:24;4.80;;;2.22;;
31638;SDS011;18248;51.522;7.020;2023-08-07T16:48:23;7.63;;;2.03;;
31638;SDS011;18248;51.522;7.020;2023-08-07T16:51:21;5.60;;;2.28;;
31638;SDS011;18248;51.522;7.020;2023-08-07T16:54:20;11.35;;;2.28;;
31638;SDS011;18248;51.522;7.020;2023-08-07T16:57:19;5.90;;;2.08;;
31638;SDS011;18248;51.522;7.020;2023-08-07T17:00:18;4.28;;;1.95;;
31638;SDS011;18248;51.522;7.020;2023-08-07T17:03:17;8.98;;;2.65;;
31638;SDS011;18248;51.522;7.020;2023-08-07T17:06:15;10.95;;;2.78;;
31638;SDS011;18248;51.522;7.020;2023-08-07T17:09:14;6.88;;;2.60;;
31638;SDS011;18248;51.522;7.020;2023-08-07T17:12:16;7.00;;;2.03;;
31638;SDS011;18248;51.522;7.020;2023-08-07T17:15:15;5.00;;;1.85;;
31638;SDS011;18248;51.522;7.020;2023-08-07T17:18:13;4.65;;;2.60;;
31638;SDS011;18248;51.522;7.020;2023-08-07T17:21:12;8.35;;;1.83;;
31638;SDS011;18248;51.522;7.020;2023-08-07T17:24:11;8.85;;;2.45;;
31638;SDS011;18248;51.522;7.020;2023-08-07T17:27:09;7.53;;;2.55;;
31638;SDS011;18248;51.522;7.020;2023-08-07T17:30:08;10.57;;;2.10;;
31638;SDS011;18248;51.522;7.020;2023-08-07T17:33:11;5.30;;;1.95;;
31638;SDS011;18248;51.522;7.020;2023-08-07T17:36:12;10.25;;;2.28;;
31638;SDS011;18248;51.522;7.020;2023-08-07T17:39:11;4.13;;;1.70;;
31638;SDS011;18248;51.522;7.020;2023-08-07T17:42:09;3.78;;;1.65;;
31638;SDS011;18248;51.522;7.020;2023-08-07T17:45:08;3.65;;;1.80;;
31638;SDS011;18248;51.522;7.020;2023-08-07T17:48:07;4.95;;;1.60;;
31638;SDS011;18248;51.522;7.020;2023-08-07T17:51:05;3.20;;;1.50;;
31638;SDS011;18248;51.522;7.020;2023-08-07T17:54:04;4.22;;;1.73;;
31638;SDS011;18248;51.522;7.020;2023-08-07T17:57:03;4.97;;;1.10;;